Record high temperature 32.7°C Record low temperature 7.4°C Record high gust 33.0 mph Record high average 20.4 mph Record daily rain 12.6 mm Record low windchill 5.1°C Record high barometer 1038.3 hPa Record low barometer 997.7 hPa
Daily high pressure 1016.7 hPa Daily low pressure 1016.2 hPa Daily low windchill 18.6°C Daily high heat index 18.8°C Daily high gust speed 4.6 mph WNW Daily high average speed 2.9 mph WNW
Seaford Weather Data
LAST READING AT TIME: 2:00 AM DATE: 15 August 2020, time of next update: 2:30 am
Current WeatherNight time/Dry/Overcast Current Temperature 18.6°C (65.5°F) (Heat Index 18.6°C ), Apparent temp 20.1°C
Maximum Temperature (since midnight)18.8°C at: 12:01 AM Minimum Temperature (since midnight)18.6°C at: 1:43 AM
Average windspeed (ten minute)1.8 mph Wind Direction (ten minute)WNW (290°)
Windchill Temperature 18.6°C Maximum Gust (last hour)4.0 mph at: 1:53 AM
Maximum Gust (since midnight)4.6 mph at: 1:53 AM Maximum 1 minute average (since midnight)2.9 mph at: 1:53 AM
Rainfall (last hour)0.0 mm Rainfall (since midnight)0.0 mm (0.00 in.)---
Rainfall This month 8.6 mm (0.34 in.) Rainfall To date this year 462.4 mm (18.20 in.)
Maximum rain per minute (last hour)0.0 mm/min Maximum rain per hour (last 6 hours)0.0 mm/hour
Yesterdays rainfall 0.2 mm DewPoint 16.6°C (Wet Bulb :17.4°C )
Humidity 88 %, Humidex 23.6°C Barometer corrected to msl1016.3 hPa
Pressure change -0.1 hPa (last hour) Trend (last hour)STEADY
Pressure change (last 12 hours)+1.1 hPa Pressure change (last 6 hours)+0.6 hPa
Current 00:00 hours of sunshine today, current sky: Night time/Dry/Overcast
Sunshine hours for the year: 507:22 hrs Sunshine hours for the month: 75:34 hrs
Current evapotranspiration rate 0.4 mm per day. Yesterday's reading 1.2



Weather report/warning/Metars

Shoreham Airport, United Kingdom (EGKA) 50-50N 000-17W 0M
Aug 14, 2020 - 02:50 PM EDT / 2020.08.14 1850 UTC
Wind: from the NNW (340 degrees) at 8 MPH (7 KT):0
Visibility: greater than 7 mile(s):0
Sky conditions: overcast
Temperature: 69 F (21 C)
Dew Point: 62 F (17 C)
Relative Humidity: 77%
Pressure (altimeter): 29.91 in. Hg (1013 hPa)
ob: EGKA 141850Z 34007KT 9999 OVC021 21/17 Q1013
cycle: 19
Yeovilton, United Kingdom (EGDY) 51-00N 002-38W 0M
Aug 14, 2020 - 07:50 PM EDT / 2020.08.14 2350 UTC
Wind: from the N (350 degrees) at 1 MPH (1 KT):0
Visibility: 3 mile(s):0
Sky conditions: mostly cloudy
Weather: haze
Temperature: 64 F (18 C)
Dew Point: 62 F (17 C)
Relative Humidity: 93%
Pressure (altimeter): 29.97 in. Hg (1015 hPa)
ob: EGDY 142350Z AUTO 35001KT 6000 HZ FEW022/// BKN028/// 18/17 Q1015
cycle: 0
Luton Airport , United Kingdom (EGGW) 51-52N 000-22W
Aug 14, 2020 - 08:20 PM EDT / 2020.08.15 0020 UTC
Wind: from the N (010 degrees) at 9 MPH (8 KT):0
Visibility: less than 1 mile:0
Sky conditions: obscured
Weather: fog
Temperature: 60 F (16 C)
Dew Point: 60 F (16 C)
Relative Humidity: 100%
Pressure (altimeter): 29.97 in. Hg (1015 hPa)
ob: EGGW 150020Z AUTO 01008KT 0600 R07/1100 FG VV/// 16/16 Q1015
cycle: 0
Bournemouth Airport, United Kingdom (EGHH) 50-47N 001-50W 0M
Aug 14, 2020 - 05:20 PM EDT / 2020.08.14 2120 UTC
Wind: Calm:0
Visibility: 4 mile(s):0
Sky conditions: mostly cloudy
Temperature: 66 F (19 C)
Dew Point: 62 F (17 C)
Relative Humidity: 88%
Pressure (altimeter): 29.97 in. Hg (1015 hPa)
ob: EGHH 142120Z 00000KT 8000 SCT016 BKN045 19/17 Q1015
cycle: 21
Guernsey Airport, United Kingdom (EGJB) 49-26N 002-36W 0M
Aug 14, 2020 - 07:50 PM EDT / 2020.08.14 2350 UTC
Wind: from the W (260 degrees) at 10 MPH (9 KT):0
Visibility: greater than 7 mile(s):0
Sky conditions: mostly cloudy
Temperature: 64 F (18 C)
Dew Point: 62 F (17 C)
Relative Humidity: 93%
Pressure (altimeter): 30.00 in. Hg (1016 hPa)
ob: EGJB 142350Z 26009KT 9999 BKN004 BKN009 18/17 Q1016
cycle: 0
Jersey Airport, United Kingdom (EGJJ) 49-13N 002-12W 0M
Aug 14, 2020 - 08:20 PM EDT / 2020.08.15 0020 UTC
Wind: from the W (270 degrees) at 13 MPH (11 KT):0
Visibility: greater than 7 mile(s):0
Sky conditions: overcast
Temperature: 62 F (17 C)
Dew Point: 62 F (17 C)
Relative Humidity: 100%
Pressure (altimeter): 30.00 in. Hg (1016 hPa)
ob: EGJJ 150020Z AUTO 27011KT 9999 BKN006/// OVC008/// 17/17 Q1016
cycle: 0
London / Gatwick Airport, United Kingdom (EGKK) 51-09N 000-11W 0M
Aug 14, 2020 - 08:20 PM EDT / 2020.08.15 0020 UTC
Wind: from the NNE (020 degrees) at 6 MPH (5 KT):0
Visibility: 1 mile(s):0
Sky conditions: overcast
Weather: haze
Temperature: 66 F (19 C)
Dew Point: 62 F (17 C)
Relative Humidity: 88%
Pressure (altimeter): 29.94 in. Hg (1014 hPa)
ob: EGKK 150020Z 02005KT 3000 HZ OVC005 19/17 Q1014
cycle: 0
London / Heathrow Airport, United Kingdom (EGLL) 51-29N 000-27W 0M
Aug 14, 2020 - 08:20 PM EDT / 2020.08.15 0020 UTC
Wind: from the N (010 degrees) at 5 MPH (4 KT) (direction variable):0
Visibility: 1 mile(s):0
Sky conditions: overcast
Weather: haze
Temperature: 64 F (18 C)
Dew Point: 62 F (17 C)
Relative Humidity: 93%
Pressure (altimeter): 29.97 in. Hg (1015 hPa)
ob: EGLL 150020Z AUTO 01004KT 330V060 2100 HZ OVC005 18/17 Q1015
cycle: 0
Southend-On-Sea , United Kingdom (EGMC) 51-34N 000-42E
Aug 14, 2020 - 08:20 PM EDT / 2020.08.15 0020 UTC
Wind: from the N (350 degrees) at 5 MPH (4 KT):0
Visibility: 1 mile(s):0
Sky conditions: overcast
Weather: mist
Temperature: 64 F (18 C)
Dew Point: 64 F (18 C)
Relative Humidity: 100%
Pressure (altimeter): 29.94 in. Hg (1014 hPa)
ob: EGMC 150020Z 35004KT 2500 BR OVC004 18/18 Q1014
cycle: 0
Lydd Airport , United Kingdom (EGMD) 50-57N 000-56E
Aug 14, 2020 - 08:20 PM EDT / 2020.08.15 0020 UTC
Wind: from the N (350 degrees) at 3 MPH (3 KT):0
Visibility: greater than 7 mile(s):0
Sky conditions: overcast
Temperature: 68 F (20 C)
Dew Point: 66 F (19 C)
Relative Humidity: 93%
Pressure (altimeter): 29.94 in. Hg (1014 hPa)
ob: EGMD 150020Z AUTO 35003KT 9999 OVC021/// 20/19 Q1014
cycle: 0
Glasgow Airport, United Kingdom (EGPF) 55-52N 004-26W 0M
Aug 14, 2020 - 08:20 PM EDT / 2020.08.15 0020 UTC
Wind: from the E (080 degrees) at 13 MPH (11 KT):0
Visibility: greater than 7 mile(s):0
Sky conditions: overcast
Temperature: 59 F (15 C)
Dew Point: 55 F (13 C)
Relative Humidity: 87%
Pressure (altimeter): 30.09 in. Hg (1019 hPa)
ob: EGPF 150020Z AUTO 08011KT 9999 OVC010 15/13 Q1019
cycle: 0
Stansted Airport, United Kingdom (EGSS) 51-53N 000-14E 0M
Aug 14, 2020 - 08:20 PM EDT / 2020.08.15 0020 UTC
Wind: from the N (360 degrees) at 7 MPH (6 KT):0
Visibility: less than 1 mile:0
Sky conditions: overcast
Weather: mist
Temperature: 62 F (17 C)
Dew Point: 62 F (17 C)
Relative Humidity: 100%
Pressure (altimeter): 29.97 in. Hg (1015 hPa)
ob: EGSS 150020Z AUTO 36006KT 1600 BR OVC002 17/17 Q1015
cycle: 0
Brize Norton, United Kingdom (EGVN) 51-45N 001-35W 0M
Aug 14, 2020 - 08:20 PM EDT / 2020.08.15 0020 UTC
Wind: from the NE (050 degrees) at 10 MPH (9 KT):0
Visibility: 3 mile(s):0
Sky conditions: overcast
Weather: haze
Temperature: 64 F (18 C)
Dew Point: 60 F (16 C)
Relative Humidity: 88%
Pressure (altimeter): 29.97 in. Hg (1015 hPa)
ob: EGVN 150020Z 05009KT 6000 HZ OVC009 18/16 Q1015 TEMPO 4000 BR BKN006 RMK GRN TEMPO YLO1
cycle: 0



The data is logged at two minute intervals, but there is data recorded every minute. On the graph, the Blue line represents the average windspeed, the Red line is the maximum gust for that interval, and the Green line is what the wind has dropped off to in the same interval. Fuschia is the Barometer, and the dew point and Blue is humidity.

Use the RELOAD facility on your browser to retrieve the latest data.

Click here for a daily update of the averages/extremes to date for the month

Check *Live* Weather

Created by "Weather Display" software version 10.37S at this start time/date 09:19:27 05/08/2020